Thomas Junction, Idaho
Current Conditions -  °F | °C
As of 4:53 PM on Saturday 20 Dec 2014 (Local Time) from KIDA Reporting Station
Overcast Overcast  
Wind Chill: 30°   Ceiling: 2200
Heat Index: 36°   Visibility: 10mi
Dew Point: 34°   Wind: 8mph
Humidity: 93%   Direction: 210°SSW
Pressure: 29.97"   Gusts: NA
Location:  43.2718°N, 112.405°W
Report Text: KIDA 202353Z 21007KT 10SM FEW016 OVC022 02/01 A2997 RMK AO2 SLP164 60001 T00220011 10028 20006 58006
Loading
Personal Weather Stations






























Interactive Weather Map New forecast layout! Learn more

10-Day Weather Forecast

Advertisements
Track Severe Weather on mobile